sensor_id;sensor_type;location;lat;lon;timestamp;P1;durP1;ratioP1;P2;durP2;ratioP2
15327;SDS011;7764;51.430;6.840;2023-02-04T00:01:23;28.17;;;6.83;;
15327;SDS011;7764;51.430;6.840;2023-02-04T00:03:51;28.50;;;6.07;;
15327;SDS011;7764;51.430;6.840;2023-02-04T00:06:18;26.13;;;5.50;;
15327;SDS011;7764;51.430;6.840;2023-02-04T00:08:45;24.97;;;5.50;;
15327;SDS011;7764;51.430;6.840;2023-02-04T00:11:12;30.10;;;7.23;;
15327;SDS011;7764;51.430;6.840;2023-02-04T00:13:38;20.87;;;5.47;;
15327;SDS011;7764;51.430;6.840;2023-02-04T00:16:05;25.50;;;5.33;;
15327;SDS011;7764;51.430;6.840;2023-02-04T00:18:33;23.83;;;5.63;;
15327;SDS011;7764;51.430;6.840;2023-02-04T00:21:01;29.33;;;5.83;;
15327;SDS011;7764;51.430;6.840;2023-02-04T00:23:28;30.03;;;5.97;;
15327;SDS011;7764;51.430;6.840;2023-02-04T00:25:54;28.53;;;5.77;;
15327;SDS011;7764;51.430;6.840;2023-02-04T00:28:21;26.67;;;5.63;;
15327;SDS011;7764;51.430;6.840;2023-02-04T00:30:48;27.30;;;6.50;;
15327;SDS011;7764;51.430;6.840;2023-02-04T00:33:15;29.47;;;5.43;;
15327;SDS011;7764;51.430;6.840;2023-02-04T00:35:42;24.27;;;5.53;;
15327;SDS011;7764;51.430;6.840;2023-02-04T00:38:10;28.67;;;5.90;;
15327;SDS011;7764;51.430;6.840;2023-02-04T00:40:37;30.93;;;6.23;;
15327;SDS011;7764;51.430;6.840;2023-02-04T00:43:04;26.47;;;5.40;;
15327;SDS011;7764;51.430;6.840;2023-02-04T00:45:31;26.83;;;5.80;;
15327;SDS011;7764;51.430;6.840;2023-02-04T00:47:57;28.67;;;6.57;;
15327;SDS011;7764;51.430;6.840;2023-02-04T00:50:24;22.93;;;5.40;;
15327;SDS011;7764;51.430;6.840;2023-02-04T00:52:51;26.77;;;6.07;;
15327;SDS011;7764;51.430;6.840;2023-02-04T00:55:19;28.87;;;6.37;;
15327;SDS011;7764;51.430;6.840;2023-02-04T00:57:46;29.60;;;6.33;;
15327;SDS011;7764;51.430;6.840;2023-02-04T01:00:14;24.83;;;5.67;;
15327;SDS011;7764;51.430;6.840;2023-02-04T01:02:42;23.23;;;6.10;;
15327;SDS011;7764;51.430;6.840;2023-02-04T01:05:09;30.83;;;6.07;;
15327;SDS011;7764;51.430;6.840;2023-02-04T01:07:36;29.90;;;6.43;;
15327;SDS011;7764;51.430;6.840;2023-02-04T01:10:03;26.70;;;5.80;;
15327;SDS011;7764;51.430;6.840;2023-02-04T01:12:32;31.93;;;6.07;;
15327;SDS011;7764;51.430;6.840;2023-02-04T01:14:58;22.70;;;5.30;;
15327;SDS011;7764;51.430;6.840;2023-02-04T01:17:25;23.13;;;5.20;;
15327;SDS011;7764;51.430;6.840;2023-02-04T01:19:52;25.83;;;5.43;;
15327;SDS011;7764;51.430;6.840;2023-02-04T01:22:19;27.63;;;5.43;;
15327;SDS011;7764;51.430;6.840;2023-02-04T01:24:46;24.97;;;6.17;;
15327;SDS011;7764;51.430;6.840;2023-02-04T01:27:14;26.27;;;5.33;;
15327;SDS011;7764;51.430;6.840;2023-02-04T01:29:42;26.27;;;6.77;;
15327;SDS011;7764;51.430;6.840;2023-02-04T01:32:09;21.90;;;5.37;;
15327;SDS011;7764;51.430;6.840;2023-02-04T01:34:36;26.70;;;5.73;;
15327;SDS011;7764;51.430;6.840;2023-02-04T01:37:03;28.87;;;5.13;;
15327;SDS011;7764;51.430;6.840;2023-02-04T01:39:30;24.97;;;5.20;;
15327;SDS011;7764;51.430;6.840;2023-02-04T01:41:58;23.03;;;5.23;;
15327;SDS011;7764;51.430;6.840;2023-02-04T01:44:26;30.77;;;5.57;;
15327;SDS011;7764;51.430;6.840;2023-02-04T01:46:54;24.57;;;5.30;;
15327;SDS011;7764;51.430;6.840;2023-02-04T01:49:21;24.83;;;5.30;;
15327;SDS011;7764;51.430;6.840;2023-02-04T01:51:48;28.00;;;5.37;;
15327;SDS011;7764;51.430;6.840;2023-02-04T01:54:15;34.10;;;6.07;;
15327;SDS011;7764;51.430;6.840;2023-02-04T01:56:45;24.30;;;5.57;;
15327;SDS011;7764;51.430;6.840;2023-02-04T01:59:14;23.77;;;5.50;;
15327;SDS011;7764;51.430;6.840;2023-02-04T02:01:43;24.93;;;5.97;;
15327;SDS011;7764;51.430;6.840;2023-02-04T02:04:14;23.13;;;5.23;;
15327;SDS011;7764;51.430;6.840;2023-02-04T02:06:43;30.53;;;5.80;;
15327;SDS011;7764;51.430;6.840;2023-02-04T02:09:15;30.80;;;6.03;;
15327;SDS011;7764;51.430;6.840;2023-02-04T02:11:42;29.33;;;6.10;;
15327;SDS011;7764;51.430;6.840;2023-02-04T02:14:09;35.37;;;6.30;;
15327;SDS011;7764;51.430;6.840;2023-02-04T02:16:36;32.63;;;6.00;;
15327;SDS011;7764;51.430;6.840;2023-02-04T02:19:03;26.57;;;5.47;;
15327;SDS011;7764;51.430;6.840;2023-02-04T02:21:36;27.87;;;5.63;;
15327;SDS011;7764;51.430;6.840;2023-02-04T02:26:51;26.67;;;5.30;;
15327;SDS011;7764;51.430;6.840;2023-02-04T02:29:18;29.07;;;5.83;;
15327;SDS011;7764;51.430;6.840;2023-02-04T02:31:45;35.90;;;6.07;;
15327;SDS011;7764;51.430;6.840;2023-02-04T02:34:12;32.37;;;5.97;;
15327;SDS011;7764;51.430;6.840;2023-02-04T02:36:39;27.53;;;5.93;;
15327;SDS011;7764;51.430;6.840;2023-02-04T02:39:06;22.53;;;5.07;;
15327;SDS011;7764;51.430;6.840;2023-02-04T02:41:35;27.43;;;6.37;;
15327;SDS011;7764;51.430;6.840;2023-02-04T02:44:02;25.53;;;5.60;;
15327;SDS011;7764;51.430;6.840;2023-02-04T02:46:29;28.27;;;5.77;;
15327;SDS011;7764;51.430;6.840;2023-02-04T02:48:56;29.70;;;5.43;;
15327;SDS011;7764;51.430;6.840;2023-02-04T02:51:23;28.77;;;6.17;;
15327;SDS011;7764;51.430;6.840;2023-02-04T02:53:49;31.93;;;6.60;;
15327;SDS011;7764;51.430;6.840;2023-02-04T02:56:16;31.10;;;5.87;;
15327;SDS011;7764;51.430;6.840;2023-02-04T02:58:45;30.73;;;5.73;;
15327;SDS011;7764;51.430;6.840;2023-02-04T03:01:12;29.33;;;6.13;;
15327;SDS011;7764;51.430;6.840;2023-02-04T03:03:40;26.73;;;5.30;;
15327;SDS011;7764;51.430;6.840;2023-02-04T03:06:10;25.90;;;5.63;;
15327;SDS011;7764;51.430;6.840;2023-02-04T03:08:40;25.67;;;5.70;;
15327;SDS011;7764;51.430;6.840;2023-02-04T03:11:09;30.70;;;6.27;;
15327;SDS011;7764;51.430;6.840;2023-02-04T03:13:36;30.10;;;5.93;;
15327;SDS011;7764;51.430;6.840;2023-02-04T03:16:05;26.57;;;5.60;;
15327;SDS011;7764;51.430;6.840;2023-02-04T03:18:33;28.90;;;5.57;;
15327;SDS011;7764;51.430;6.840;2023-02-04T03:21:01;35.23;;;5.70;;
15327;SDS011;7764;51.430;6.840;2023-02-04T03:23:30;28.57;;;6.60;;
15327;SDS011;7764;51.430;6.840;2023-02-04T03:25:58;34.73;;;6.20;;
15327;SDS011;7764;51.430;6.840;2023-02-04T03:28:25;28.63;;;6.50;;
15327;SDS011;7764;51.430;6.840;2023-02-04T03:30:52;26.47;;;5.53;;
15327;SDS011;7764;51.430;6.840;2023-02-04T03:33:21;23.60;;;5.63;;
15327;SDS011;7764;51.430;6.840;2023-02-04T03:35:48;28.17;;;5.80;;
15327;SDS011;7764;51.430;6.840;2023-02-04T03:38:15;34.10;;;6.23;;
15327;SDS011;7764;51.430;6.840;2023-02-04T03:40:42;30.70;;;5.73;;
15327;SDS011;7764;51.430;6.840;2023-02-04T03:43:09;26.20;;;5.93;;
15327;SDS011;7764;51.430;6.840;2023-02-04T03:45:36;32.80;;;6.40;;
15327;SDS011;7764;51.430;6.840;2023-02-04T03:48:03;28.17;;;5.23;;
15327;SDS011;7764;51.430;6.840;2023-02-04T03:50:31;28.97;;;5.60;;
15327;SDS011;7764;51.430;6.840;2023-02-04T03:52:58;31.50;;;6.40;;
15327;SDS011;7764;51.430;6.840;2023-02-04T03:55:25;30.07;;;5.83;;
15327;SDS011;7764;51.430;6.840;2023-02-04T03:57:52;30.07;;;5.63;;
15327;SDS011;7764;51.430;6.840;2023-02-04T04:00:19;24.53;;;5.23;;
15327;SDS011;7764;51.430;6.840;2023-02-04T04:02:46;26.70;;;6.47;;
15327;SDS011;7764;51.430;6.840;2023-02-04T04:05:12;25.07;;;5.40;;
15327;SDS011;7764;51.430;6.840;2023-02-04T04:07:41;29.10;;;5.80;;
15327;SDS011;7764;51.430;6.840;2023-02-04T04:10:09;29.60;;;5.97;;
15327;SDS011;7764;51.430;6.840;2023-02-04T04:12:36;36.10;;;7.57;;
15327;SDS011;7764;51.430;6.840;2023-02-04T04:15:03;29.17;;;6.60;;
15327;SDS011;7764;51.430;6.840;2023-02-04T04:17:30;30.20;;;5.90;;
15327;SDS011;7764;51.430;6.840;2023-02-04T04:19:57;31.73;;;6.47;;
15327;SDS011;7764;51.430;6.840;2023-02-04T04:22:24;28.23;;;5.80;;
15327;SDS011;7764;51.430;6.840;2023-02-04T04:24:52;33.73;;;6.73;;
15327;SDS011;7764;51.430;6.840;2023-02-04T04:27:19;25.37;;;5.30;;
15327;SDS011;7764;51.430;6.840;2023-02-04T04:29:46;27.93;;;6.00;;
15327;SDS011;7764;51.430;6.840;2023-02-04T04:32:13;29.17;;;5.50;;
15327;SDS011;7764;51.430;6.840;2023-02-04T04:34:40;28.40;;;5.73;;
15327;SDS011;7764;51.430;6.840;2023-02-04T04:37:06;30.03;;;5.60;;
15327;SDS011;7764;51.430;6.840;2023-02-04T04:39:33;26.53;;;6.63;;
15327;SDS011;7764;51.430;6.840;2023-02-04T04:42:01;31.40;;;7.33;;
15327;SDS011;7764;51.430;6.840;2023-02-04T04:44:28;29.77;;;7.87;;
15327;SDS011;7764;51.430;6.840;2023-02-04T04:46:55;33.83;;;7.43;;
15327;SDS011;7764;51.430;6.840;2023-02-04T04:49:22;31.27;;;7.80;;
15327;SDS011;7764;51.430;6.840;2023-02-04T04:51:49;26.17;;;6.00;;
15327;SDS011;7764;51.430;6.840;2023-02-04T04:54:16;31.20;;;6.90;;
15327;SDS011;7764;51.430;6.840;2023-02-04T04:56:43;26.53;;;6.97;;
15327;SDS011;7764;51.430;6.840;2023-02-04T04:59:11;25.53;;;6.43;;
15327;SDS011;7764;51.430;6.840;2023-02-04T05:01:38;28.70;;;6.13;;
15327;SDS011;7764;51.430;6.840;2023-02-04T05:04:05;27.20;;;5.90;;
15327;SDS011;7764;51.430;6.840;2023-02-04T05:06:32;27.27;;;5.77;;
15327;SDS011;7764;51.430;6.840;2023-02-04T05:08:59;29.97;;;5.90;;
15327;SDS011;7764;51.430;6.840;2023-02-04T05:11:25;23.93;;;5.87;;
15327;SDS011;7764;51.430;6.840;2023-02-04T05:13:52;26.90;;;6.53;;
15327;SDS011;7764;51.430;6.840;2023-02-04T05:16:20;26.07;;;6.20;;
15327;SDS011;7764;51.430;6.840;2023-02-04T05:18:48;24.60;;;5.80;;
15327;SDS011;7764;51.430;6.840;2023-02-04T05:21:14;24.10;;;6.13;;
15327;SDS011;7764;51.430;6.840;2023-02-04T05:23:41;26.40;;;6.40;;
15327;SDS011;7764;51.430;6.840;2023-02-04T05:26:08;24.80;;;6.30;;
15327;SDS011;7764;51.430;6.840;2023-02-04T05:28:35;23.27;;;6.07;;
15327;SDS011;7764;51.430;6.840;2023-02-04T05:31:02;29.73;;;7.40;;
15327;SDS011;7764;51.430;6.840;2023-02-04T05:33:30;26.77;;;6.10;;
15327;SDS011;7764;51.430;6.840;2023-02-04T05:35:57;38.47;;;7.23;;
15327;SDS011;7764;51.430;6.840;2023-02-04T05:38:23;24.87;;;6.17;;
15327;SDS011;7764;51.430;6.840;2023-02-04T05:40:50;27.03;;;6.37;;
15327;SDS011;7764;51.430;6.840;2023-02-04T05:43:17;28.57;;;7.07;;
15327;SDS011;7764;51.430;6.840;2023-02-04T05:45:44;26.90;;;6.07;;
15327;SDS011;7764;51.430;6.840;2023-02-04T05:48:11;24.93;;;5.90;;
15327;SDS011;7764;51.430;6.840;2023-02-04T05:50:39;25.53;;;6.03;;
15327;SDS011;7764;51.430;6.840;2023-02-04T05:53:06;30.20;;;6.23;;
15327;SDS011;7764;51.430;6.840;2023-02-04T05:55:33;26.30;;;6.20;;
15327;SDS011;7764;51.430;6.840;2023-02-04T05:57:59;30.50;;;7.47;;
15327;SDS011;7764;51.430;6.840;2023-02-04T06:00:26;26.77;;;6.40;;
15327;SDS011;7764;51.430;6.840;2023-02-04T06:02:53;29.33;;;7.17;;
15327;SDS011;7764;51.430;6.840;2023-02-04T06:05:20;27.23;;;6.77;;
15327;SDS011;7764;51.430;6.840;2023-02-04T06:07:49;27.77;;;6.70;;
15327;SDS011;7764;51.430;6.840;2023-02-04T06:10:16;29.20;;;6.53;;
15327;SDS011;7764;51.430;6.840;2023-02-04T06:12:45;27.63;;;6.93;;
15327;SDS011;7764;51.430;6.840;2023-02-04T06:15:12;29.97;;;6.97;;
15327;SDS011;7764;51.430;6.840;2023-02-04T06:17:39;32.47;;;6.97;;
15327;SDS011;7764;51.430;6.840;2023-02-04T06:20:06;30.37;;;7.40;;
15327;SDS011;7764;51.430;6.840;2023-02-04T06:22:34;34.73;;;8.23;;
15327;SDS011;7764;51.430;6.840;2023-02-04T06:25:02;28.60;;;6.73;;
15327;SDS011;7764;51.430;6.840;2023-02-04T06:27:29;28.63;;;7.00;;
15327;SDS011;7764;51.430;6.840;2023-02-04T06:29:56;28.70;;;7.03;;
15327;SDS011;7764;51.430;6.840;2023-02-04T06:32:23;25.63;;;5.73;;
15327;SDS011;7764;51.430;6.840;2023-02-04T06:34:50;32.23;;;6.23;;
15327;SDS011;7764;51.430;6.840;2023-02-04T06:37:17;28.13;;;6.70;;
15327;SDS011;7764;51.430;6.840;2023-02-04T06:39:44;35.20;;;7.83;;
15327;SDS011;7764;51.430;6.840;2023-02-04T06:42:12;28.63;;;6.27;;
15327;SDS011;7764;51.430;6.840;2023-02-04T06:44:39;28.67;;;5.90;;
15327;SDS011;7764;51.430;6.840;2023-02-04T06:47:06;28.83;;;5.43;;
15327;SDS011;7764;51.430;6.840;2023-02-04T06:49:33;31.93;;;5.90;;
15327;SDS011;7764;51.430;6.840;2023-02-04T06:52:00;25.80;;;5.90;;
15327;SDS011;7764;51.430;6.840;2023-02-04T06:54:27;26.63;;;5.77;;
15327;SDS011;7764;51.430;6.840;2023-02-04T06:56:53;26.63;;;6.03;;
15327;SDS011;7764;51.430;6.840;2023-02-04T06:59:23;23.03;;;5.83;;
15327;SDS011;7764;51.430;6.840;2023-02-04T07:01:53;33.00;;;6.70;;
15327;SDS011;7764;51.430;6.840;2023-02-04T07:04:20;32.37;;;7.00;;
15327;SDS011;7764;51.430;6.840;2023-02-04T07:06:46;33.90;;;6.37;;
15327;SDS011;7764;51.430;6.840;2023-02-04T07:09:13;26.33;;;5.90;;
15327;SDS011;7764;51.430;6.840;2023-02-04T07:11:40;25.87;;;5.60;;
15327;SDS011;7764;51.430;6.840;2023-02-04T07:14:07;35.87;;;6.90;;
15327;SDS011;7764;51.430;6.840;2023-02-04T07:16:36;26.57;;;6.10;;
15327;SDS011;7764;51.430;6.840;2023-02-04T07:19:03;30.80;;;5.77;;
15327;SDS011;7764;51.430;6.840;2023-02-04T07:21:30;33.27;;;6.57;;
15327;SDS011;7764;51.430;6.840;2023-02-04T07:23:56;32.53;;;7.10;;
15327;SDS011;7764;51.430;6.840;2023-02-04T07:26:23;25.43;;;6.20;;
15327;SDS011;7764;51.430;6.840;2023-02-04T07:28:50;30.80;;;6.70;;
15327;SDS011;7764;51.430;6.840;2023-02-04T07:31:17;31.23;;;6.20;;
15327;SDS011;7764;51.430;6.840;2023-02-04T07:33:45;25.20;;;6.40;;
15327;SDS011;7764;51.430;6.840;2023-02-04T07:36:12;31.27;;;7.37;;
15327;SDS011;7764;51.430;6.840;2023-02-04T07:38:39;30.40;;;6.73;;
15327;SDS011;7764;51.430;6.840;2023-02-04T07:41:06;24.73;;;5.63;;
15327;SDS011;7764;51.430;6.840;2023-02-04T07:43:32;33.10;;;6.13;;
15327;SDS011;7764;51.430;6.840;2023-02-04T07:45:59;28.53;;;6.33;;
15327;SDS011;7764;51.430;6.840;2023-02-04T07:48:26;26.57;;;6.30;;
15327;SDS011;7764;51.430;6.840;2023-02-04T07:50:55;30.13;;;6.93;;
15327;SDS011;7764;51.430;6.840;2023-02-04T07:53:21;26.83;;;6.77;;
15327;SDS011;7764;51.430;6.840;2023-02-04T07:55:48;26.43;;;5.93;;
15327;SDS011;7764;51.430;6.840;2023-02-04T07:58:15;29.23;;;6.40;;
15327;SDS011;7764;51.430;6.840;2023-02-04T08:00:42;30.57;;;6.73;;
15327;SDS011;7764;51.430;6.840;2023-02-04T08:03:09;34.60;;;6.70;;
15327;SDS011;7764;51.430;6.840;2023-02-04T08:05:35;22.67;;;5.63;;
15327;SDS011;7764;51.430;6.840;2023-02-04T08:08:04;26.10;;;6.83;;
15327;SDS011;7764;51.430;6.840;2023-02-04T08:10:30;30.43;;;6.33;;
15327;SDS011;7764;51.430;6.840;2023-02-04T08:12:57;31.87;;;6.60;;
15327;SDS011;7764;51.430;6.840;2023-02-04T08:15:24;27.70;;;6.87;;
15327;SDS011;7764;51.430;6.840;2023-02-04T08:17:51;29.30;;;6.90;;
15327;SDS011;7764;51.430;6.840;2023-02-04T08:20:18;38.60;;;8.30;;
15327;SDS011;7764;51.430;6.840;2023-02-04T08:22:45;32.57;;;6.90;;
15327;SDS011;7764;51.430;6.840;2023-02-04T08:25:13;29.27;;;7.00;;
15327;SDS011;7764;51.430;6.840;2023-02-04T08:27:40;32.63;;;6.73;;
15327;SDS011;7764;51.430;6.840;2023-02-04T08:30:08;25.93;;;6.77;;
15327;SDS011;7764;51.430;6.840;2023-02-04T08:32:36;30.93;;;7.13;;
15327;SDS011;7764;51.430;6.840;2023-02-04T08:35:04;27.33;;;6.97;;
15327;SDS011;7764;51.430;6.840;2023-02-04T08:37:31;34.37;;;7.17;;
15327;SDS011;7764;51.430;6.840;2023-02-04T08:39:58;39.60;;;6.67;;
15327;SDS011;7764;51.430;6.840;2023-02-04T08:42:26;27.77;;;7.03;;
15327;SDS011;7764;51.430;6.840;2023-02-04T08:44:53;45.73;;;15.53;;
15327;SDS011;7764;51.430;6.840;2023-02-04T08:47:20;32.60;;;9.20;;
15327;SDS011;7764;51.430;6.840;2023-02-04T08:49:46;31.53;;;9.07;;
15327;SDS011;7764;51.430;6.840;2023-02-04T08:52:13;27.73;;;6.90;;
15327;SDS011;7764;51.430;6.840;2023-02-04T08:54:40;29.80;;;7.33;;
15327;SDS011;7764;51.430;6.840;2023-02-04T08:57:07;28.83;;;7.20;;
15327;SDS011;7764;51.430;6.840;2023-02-04T08:59:35;61.50;;;29.87;;
15327;SDS011;7764;51.430;6.840;2023-02-04T09:02:02;33.57;;;10.70;;
15327;SDS011;7764;51.430;6.840;2023-02-04T09:04:29;33.77;;;7.60;;
15327;SDS011;7764;51.430;6.840;2023-02-04T09:06:56;30.57;;;7.50;;
15327;SDS011;7764;51.430;6.840;2023-02-04T09:09:22;29.53;;;6.77;;
15327;SDS011;7764;51.430;6.840;2023-02-04T09:11:49;29.73;;;6.73;;
15327;SDS011;7764;51.430;6.840;2023-02-04T09:14:16;32.53;;;7.17;;
15327;SDS011;7764;51.430;6.840;2023-02-04T09:16:44;29.07;;;6.97;;
15327;SDS011;7764;51.430;6.840;2023-02-04T09:19:13;27.93;;;6.47;;
15327;SDS011;7764;51.430;6.840;2023-02-04T09:21:40;35.23;;;10.20;;
15327;SDS011;7764;51.430;6.840;2023-02-04T09:24:07;32.23;;;6.90;;
15327;SDS011;7764;51.430;6.840;2023-02-04T09:26:34;40.67;;;11.43;;
15327;SDS011;7764;51.430;6.840;2023-02-04T09:29:01;36.13;;;7.30;;
15327;SDS011;7764;51.430;6.840;2023-02-04T09:31:28;27.53;;;6.83;;
15327;SDS011;7764;51.430;6.840;2023-02-04T09:33:56;30.63;;;7.60;;
15327;SDS011;7764;51.430;6.840;2023-02-04T09:36:24;29.60;;;7.10;;
15327;SDS011;7764;51.430;6.840;2023-02-04T09:38:53;33.13;;;7.03;;
15327;SDS011;7764;51.430;6.840;2023-02-04T09:41:20;36.57;;;7.10;;
15327;SDS011;7764;51.430;6.840;2023-02-04T09:43:47;31.67;;;7.33;;
15327;SDS011;7764;51.430;6.840;2023-02-04T09:46:17;37.47;;;7.40;;
15327;SDS011;7764;51.430;6.840;2023-02-04T09:48:46;32.80;;;7.00;;
15327;SDS011;7764;51.430;6.840;2023-02-04T09:51:17;29.70;;;7.23;;
15327;SDS011;7764;51.430;6.840;2023-02-04T09:53:45;31.57;;;8.37;;
15327;SDS011;7764;51.430;6.840;2023-02-04T09:56:13;31.37;;;7.47;;
15327;SDS011;7764;51.430;6.840;2023-02-04T09:58:41;30.40;;;7.83;;
15327;SDS011;7764;51.430;6.840;2023-02-04T10:01:11;37.87;;;7.93;;
15327;SDS011;7764;51.430;6.840;2023-02-04T10:03:41;38.73;;;8.40;;
15327;SDS011;7764;51.430;6.840;2023-02-04T10:06:12;39.10;;;9.23;;
15327;SDS011;7764;51.430;6.840;2023-02-04T10:08:41;33.30;;;8.73;;
15327;SDS011;7764;51.430;6.840;2023-02-04T10:11:10;38.07;;;8.80;;
15327;SDS011;7764;51.430;6.840;2023-02-04T10:13:38;36.30;;;8.77;;
15327;SDS011;7764;51.430;6.840;2023-02-04T10:16:11;36.43;;;9.90;;
15327;SDS011;7764;51.430;6.840;2023-02-04T10:18:41;42.90;;;10.57;;
15327;SDS011;7764;51.430;6.840;2023-02-04T10:21:13;38.40;;;10.80;;
15327;SDS011;7764;51.430;6.840;2023-02-04T10:23:44;34.23;;;10.73;;
15327;SDS011;7764;51.430;6.840;2023-02-04T10:26:14;35.20;;;10.63;;
15327;SDS011;7764;51.430;6.840;2023-02-04T10:28:42;42.20;;;12.60;;
15327;SDS011;7764;51.430;6.840;2023-02-04T10:31:29;39.70;;;10.73;;
15327;SDS011;7764;51.430;6.840;2023-02-04T10:34:04;33.50;;;10.10;;
15327;SDS011;7764;51.430;6.840;2023-02-04T10:36:32;41.17;;;11.10;;
15327;SDS011;7764;51.430;6.840;2023-02-04T10:39:01;39.83;;;11.27;;
15327;SDS011;7764;51.430;6.840;2023-02-04T10:41:29;42.53;;;12.90;;
15327;SDS011;7764;51.430;6.840;2023-02-04T10:44:04;38.50;;;12.83;;
15327;SDS011;7764;51.430;6.840;2023-02-04T10:46:32;36.63;;;12.13;;
15327;SDS011;7764;51.430;6.840;2023-02-04T10:48:59;41.33;;;12.23;;
15327;SDS011;7764;51.430;6.840;2023-02-04T10:51:28;46.13;;;12.80;;
15327;SDS011;7764;51.430;6.840;2023-02-04T10:53:55;69.90;;;30.07;;
15327;SDS011;7764;51.430;6.840;2023-02-04T10:56:41;72.57;;;30.17;;
15327;SDS011;7764;51.430;6.840;2023-02-04T10:59:11;82.50;;;35.23;;
15327;SDS011;7764;51.430;6.840;2023-02-04T11:01:47;78.53;;;34.03;;
15327;SDS011;7764;51.430;6.840;2023-02-04T11:04:14;77.03;;;33.03;;
15327;SDS011;7764;51.430;6.840;2023-02-04T11:06:41;78.57;;;33.30;;
15327;SDS011;7764;51.430;6.840;2023-02-04T11:09:10;91.83;;;35.57;;
15327;SDS011;7764;51.430;6.840;2023-02-04T11:11:38;87.10;;;34.47;;
15327;SDS011;7764;51.430;6.840;2023-02-04T11:14:23;83.53;;;34.70;;
15327;SDS011;7764;51.430;6.840;2023-02-04T11:16:52;80.17;;;29.77;;
15327;SDS011;7764;51.430;6.840;2023-02-04T11:19:34;75.07;;;27.50;;
15327;SDS011;7764;51.430;6.840;2023-02-04T11:22:19;76.57;;;29.83;;
15327;SDS011;7764;51.430;6.840;2023-02-04T11:24:47;75.47;;;28.57;;
15327;SDS011;7764;51.430;6.840;2023-02-04T11:27:20;70.10;;;25.93;;
15327;SDS011;7764;51.430;6.840;2023-02-04T11:29:50;81.67;;;31.77;;
15327;SDS011;7764;51.430;6.840;2023-02-04T11:32:31;77.90;;;31.93;;
15327;SDS011;7764;51.430;6.840;2023-02-04T11:35:07;64.63;;;23.00;;
15327;SDS011;7764;51.430;6.840;2023-02-04T11:37:48;66.80;;;24.43;;
15327;SDS011;7764;51.430;6.840;2023-02-04T11:40:25;58.40;;;23.03;;
15327;SDS011;7764;51.430;6.840;2023-02-04T11:42:58;57.07;;;22.37;;
15327;SDS011;7764;51.430;6.840;2023-02-04T11:45:28;57.83;;;21.77;;
15327;SDS011;7764;51.430;6.840;2023-02-04T11:47:57;49.03;;;20.50;;
15327;SDS011;7764;51.430;6.840;2023-02-04T11:50:27;48.57;;;21.27;;
15327;SDS011;7764;51.430;6.840;2023-02-04T11:52:56;50.33;;;19.77;;
15327;SDS011;7764;51.430;6.840;2023-02-04T11:55:26;47.37;;;19.50;;
15327;SDS011;7764;51.430;6.840;2023-02-04T11:57:54;47.77;;;18.50;;
15327;SDS011;7764;51.430;6.840;2023-02-04T12:00:24;43.07;;;17.90;;
15327;SDS011;7764;51.430;6.840;2023-02-04T12:02:54;41.37;;;18.80;;
15327;SDS011;7764;51.430;6.840;2023-02-04T12:05:28;42.33;;;17.77;;
15327;SDS011;7764;51.430;6.840;2023-02-04T12:08:08;39.33;;;19.17;;
15327;SDS011;7764;51.430;6.840;2023-02-04T12:10:36;43.00;;;18.47;;
15327;SDS011;7764;51.430;6.840;2023-02-04T12:13:11;42.27;;;17.70;;
15327;SDS011;7764;51.430;6.840;2023-02-04T12:15:50;40.97;;;17.07;;
15327;SDS011;7764;51.430;6.840;2023-02-04T12:18:19;34.03;;;13.97;;
15327;SDS011;7764;51.430;6.840;2023-02-04T12:20:46;34.97;;;14.90;;
15327;SDS011;7764;51.430;6.840;2023-02-04T12:23:13;32.47;;;14.50;;
15327;SDS011;7764;51.430;6.840;2023-02-04T12:25:40;40.63;;;14.97;;
15327;SDS011;7764;51.430;6.840;2023-02-04T12:28:07;30.27;;;10.60;;
15327;SDS011;7764;51.430;6.840;2023-02-04T12:30:33;31.57;;;10.83;;
15327;SDS011;7764;51.430;6.840;2023-02-04T12:33:02;29.80;;;11.23;;
15327;SDS011;7764;51.430;6.840;2023-02-04T12:35:29;35.23;;;12.50;;
15327;SDS011;7764;51.430;6.840;2023-02-04T12:37:56;38.40;;;13.70;;
15327;SDS011;7764;51.430;6.840;2023-02-04T12:40:23;38.37;;;11.30;;
15327;SDS011;7764;51.430;6.840;2023-02-04T12:42:49;35.53;;;12.13;;
15327;SDS011;7764;51.430;6.840;2023-02-04T12:45:17;28.50;;;12.50;;
15327;SDS011;7764;51.430;6.840;2023-02-04T12:47:44;38.87;;;13.83;;
15327;SDS011;7764;51.430;6.840;2023-02-04T12:50:13;38.17;;;13.77;;
15327;SDS011;7764;51.430;6.840;2023-02-04T12:52:46;36.20;;;13.43;;
15327;SDS011;7764;51.430;6.840;2023-02-04T12:55:14;31.93;;;11.90;;
15327;SDS011;7764;51.430;6.840;2023-02-04T12:57:41;33.50;;;11.90;;
15327;SDS011;7764;51.430;6.840;2023-02-04T13:00:08;29.47;;;12.00;;
15327;SDS011;7764;51.430;6.840;2023-02-04T13:02:36;36.13;;;12.93;;
15327;SDS011;7764;51.430;6.840;2023-02-04T13:05:03;37.47;;;13.93;;
15327;SDS011;7764;51.430;6.840;2023-02-04T13:07:31;38.20;;;14.27;;
15327;SDS011;7764;51.430;6.840;2023-02-04T13:09:58;35.83;;;13.60;;
15327;SDS011;7764;51.430;6.840;2023-02-04T13:12:26;37.50;;;13.03;;
15327;SDS011;7764;51.430;6.840;2023-02-04T13:14:52;35.13;;;12.37;;
15327;SDS011;7764;51.430;6.840;2023-02-04T13:17:19;35.43;;;15.87;;
15327;SDS011;7764;51.430;6.840;2023-02-04T13:19:46;37.33;;;14.17;;
15327;SDS011;7764;51.430;6.840;2023-02-04T13:22:13;41.67;;;13.73;;
15327;SDS011;7764;51.430;6.840;2023-02-04T13:24:41;31.90;;;13.73;;
15327;SDS011;7764;51.430;6.840;2023-02-04T13:27:08;37.97;;;16.10;;
15327;SDS011;7764;51.430;6.840;2023-02-04T13:29:35;41.10;;;15.60;;
15327;SDS011;7764;51.430;6.840;2023-02-04T13:32:02;44.00;;;16.97;;
15327;SDS011;7764;51.430;6.840;2023-02-04T13:34:29;40.67;;;17.40;;
15327;SDS011;7764;51.430;6.840;2023-02-04T13:36:56;43.03;;;17.70;;
15327;SDS011;7764;51.430;6.840;2023-02-04T13:39:23;42.37;;;16.83;;
15327;SDS011;7764;51.430;6.840;2023-02-04T13:41:51;47.43;;;16.87;;
15327;SDS011;7764;51.430;6.840;2023-02-04T13:44:18;43.90;;;17.87;;
15327;SDS011;7764;51.430;6.840;2023-02-04T13:46:45;42.57;;;17.23;;
15327;SDS011;7764;51.430;6.840;2023-02-04T13:49:12;54.30;;;17.90;;
15327;SDS011;7764;51.430;6.840;2023-02-04T13:51:39;42.03;;;15.63;;
15327;SDS011;7764;51.430;6.840;2023-02-04T13:54:06;37.63;;;14.90;;
15327;SDS011;7764;51.430;6.840;2023-02-04T13:56:33;45.50;;;16.20;;
15327;SDS011;7764;51.430;6.840;2023-02-04T13:59:03;42.00;;;13.87;;
15327;SDS011;7764;51.430;6.840;2023-02-04T14:01:30;36.43;;;13.60;;
15327;SDS011;7764;51.430;6.840;2023-02-04T14:03:56;35.07;;;13.70;;
15327;SDS011;7764;51.430;6.840;2023-02-04T14:06:23;37.57;;;12.80;;
15327;SDS011;7764;51.430;6.840;2023-02-04T14:08:57;39.87;;;13.37;;
15327;SDS011;7764;51.430;6.840;2023-02-04T14:11:24;37.23;;;12.50;;
15327;SDS011;7764;51.430;6.840;2023-02-04T14:13:51;39.63;;;13.37;;
15327;SDS011;7764;51.430;6.840;2023-02-04T14:16:19;37.43;;;12.90;;
15327;SDS011;7764;51.430;6.840;2023-02-04T14:18:46;35.03;;;14.17;;
15327;SDS011;7764;51.430;6.840;2023-02-04T14:21:14;36.33;;;12.90;;
15327;SDS011;7764;51.430;6.840;2023-02-04T14:23:41;44.27;;;12.60;;
15327;SDS011;7764;51.430;6.840;2023-02-04T14:26:08;36.30;;;12.53;;
15327;SDS011;7764;51.430;6.840;2023-02-04T14:28:35;35.00;;;11.40;;
15327;SDS011;7764;51.430;6.840;2023-02-04T14:31:01;33.17;;;11.40;;
15327;SDS011;7764;51.430;6.840;2023-02-04T14:33:30;30.67;;;10.47;;
15327;SDS011;7764;51.430;6.840;2023-02-04T14:35:57;31.30;;;11.07;;
15327;SDS011;7764;51.430;6.840;2023-02-04T14:38:24;39.97;;;13.50;;
15327;SDS011;7764;51.430;6.840;2023-02-04T14:40:54;35.27;;;11.73;;
15327;SDS011;7764;51.430;6.840;2023-02-04T14:43:22;33.53;;;12.70;;
15327;SDS011;7764;51.430;6.840;2023-02-04T14:45:49;35.20;;;11.57;;
15327;SDS011;7764;51.430;6.840;2023-02-04T14:48:16;37.90;;;11.20;;
15327;SDS011;7764;51.430;6.840;2023-02-04T14:50:45;29.70;;;10.50;;